Eastport, Michigan
Current Conditions -  °F | °C
As of 9:58 AM on Saturday 25 Oct 2014 (Local Time) from KACB Reporting Station
Clear Clear  
Wind Chill: 57°   Ceiling: Unl
Heat Index: 57°   Visibility: 10mi
Dew Point: 49°   Wind: 8mph
Humidity: 75%   Direction: 260°W
Pressure: 29.75"   Gusts: NA
Location:  45.11°N, 85.35°W
Report Text: KACB 251358Z AUTO 26007KT 10SM CLR 14/10 A2975 RMK AO2 T01380095
Loading
Personal Weather Stations






























Interactive Weather Map
Tropical Storm Tracking
New forecast layout! Learn more

10-Day Weather Forecast

Advertisements
Track Severe Weather on mobile